sensor_id;sensor_type;location;lat;lon;timestamp;temperature;humidity
46926;DHT22;32667;48.248;-1.700;2023-04-21T00:00:52;9.70;67.80
46926;DHT22;32667;48.248;-1.700;2023-04-21T00:03:18;9.60;67.80
46926;DHT22;32667;48.248;-1.700;2023-04-21T00:05:46;9.70;67.80
46926;DHT22;32667;48.248;-1.700;2023-04-21T00:08:13;9.60;67.70
46926;DHT22;32667;48.248;-1.700;2023-04-21T00:10:39;9.60;67.70
46926;DHT22;32667;48.248;-1.700;2023-04-21T00:13:04;9.60;67.80
46926;DHT22;32667;48.248;-1.700;2023-04-21T00:15:30;9.60;67.80
46926;DHT22;32667;48.248;-1.700;2023-04-21T00:17:56;9.60;67.80
46926;DHT22;32667;48.248;-1.700;2023-04-21T00:20:23;9.60;67.80
46926;DHT22;32667;48.248;-1.700;2023-04-21T00:22:52;9.60;67.80
46926;DHT22;32667;48.248;-1.700;2023-04-21T00:25:18;9.50;67.70
46926;DHT22;32667;48.248;-1.700;2023-04-21T00:27:44;9.50;67.70
46926;DHT22;32667;48.248;-1.700;2023-04-21T00:30:10;9.50;68.00
46926;DHT22;32667;48.248;-1.700;2023-04-21T00:32:36;9.40;67.70
46926;DHT22;32667;48.248;-1.700;2023-04-21T00:35:02;9.50;67.80
46926;DHT22;32667;48.248;-1.700;2023-04-21T00:37:27;9.40;67.70
46926;DHT22;32667;48.248;-1.700;2023-04-21T00:39:55;9.40;67.70
46926;DHT22;32667;48.248;-1.700;2023-04-21T00:42:24;9.40;67.80
46926;DHT22;32667;48.248;-1.700;2023-04-21T00:44:51;9.40;67.80
46926;DHT22;32667;48.248;-1.700;2023-04-21T00:47:17;9.40;67.80
46926;DHT22;32667;48.248;-1.700;2023-04-21T00:49:44;9.30;67.80
46926;DHT22;32667;48.248;-1.700;2023-04-21T00:52:10;9.30;67.80
46926;DHT22;32667;48.248;-1.700;2023-04-21T00:54:36;9.30;67.80
46926;DHT22;32667;48.248;-1.700;2023-04-21T00:57:02;9.30;67.80
46926;DHT22;32667;48.248;-1.700;2023-04-21T00:59:29;9.30;67.80
46926;DHT22;32667;48.248;-1.700;2023-04-21T01:01:55;9.30;67.80
46926;DHT22;32667;48.248;-1.700;2023-04-21T01:04:21;9.30;67.80
46926;DHT22;32667;48.248;-1.700;2023-04-21T01:06:47;9.20;67.80
46926;DHT22;32667;48.248;-1.700;2023-04-21T01:09:13;9.20;67.80
46926;DHT22;32667;48.248;-1.700;2023-04-21T01:11:39;9.20;67.80
46926;DHT22;32667;48.248;-1.700;2023-04-21T01:14:07;9.20;67.80
46926;DHT22;32667;48.248;-1.700;2023-04-21T01:16:35;9.20;67.80
46926;DHT22;32667;48.248;-1.700;2023-04-21T01:19:01;9.20;67.80
46926;DHT22;32667;48.248;-1.700;2023-04-21T01:21:39;9.10;67.70
46926;DHT22;32667;48.248;-1.700;2023-04-21T01:24:07;9.10;67.70
46926;DHT22;32667;48.248;-1.700;2023-04-21T01:26:33;9.10;67.70
46926;DHT22;32667;48.248;-1.700;2023-04-21T01:28:59;9.10;67.80
46926;DHT22;32667;48.248;-1.700;2023-04-21T01:31:25;9.00;67.80
46926;DHT22;32667;48.248;-1.700;2023-04-21T01:33:51;9.00;67.80
46926;DHT22;32667;48.248;-1.700;2023-04-21T01:36:17;9.00;67.90
46926;DHT22;32667;48.248;-1.700;2023-04-21T01:38:43;8.90;67.80
46926;DHT22;32667;48.248;-1.700;2023-04-21T01:41:09;8.90;67.80
46926;DHT22;32667;48.248;-1.700;2023-04-21T01:43:35;9.00;67.90
46926;DHT22;32667;48.248;-1.700;2023-04-21T01:46:03;8.90;67.80
46926;DHT22;32667;48.248;-1.700;2023-04-21T01:48:29;8.90;67.90
46926;DHT22;32667;48.248;-1.700;2023-04-21T01:50:55;8.90;67.90
46926;DHT22;32667;48.248;-1.700;2023-04-21T01:53:20;8.90;67.90
46926;DHT22;32667;48.248;-1.700;2023-04-21T01:55:46;8.90;67.90
46926;DHT22;32667;48.248;-1.700;2023-04-21T01:58:12;8.90;67.90
46926;DHT22;32667;48.248;-1.700;2023-04-21T02:00:38;8.90;67.90
46926;DHT22;32667;48.248;-1.700;2023-04-21T02:03:04;8.90;67.90
46926;DHT22;32667;48.248;-1.700;2023-04-21T02:05:35;8.90;67.80
46926;DHT22;32667;48.248;-1.700;2023-04-21T02:08:01;8.90;67.80
46926;DHT22;32667;48.248;-1.700;2023-04-21T02:10:26;8.90;67.80
46926;DHT22;32667;48.248;-1.700;2023-04-21T02:12:52;8.90;67.80
46926;DHT22;32667;48.248;-1.700;2023-04-21T02:15:18;8.80;67.70
46926;DHT22;32667;48.248;-1.700;2023-04-21T02:17:44;8.80;67.80
46926;DHT22;32667;48.248;-1.700;2023-04-21T02:20:10;8.80;67.80
46926;DHT22;32667;48.248;-1.700;2023-04-21T02:22:37;8.80;67.80
46926;DHT22;32667;48.248;-1.700;2023-04-21T02:25:03;8.80;67.80
46926;DHT22;32667;48.248;-1.700;2023-04-21T02:27:30;8.70;67.80
46926;DHT22;32667;48.248;-1.700;2023-04-21T02:29:55;8.70;67.80
46926;DHT22;32667;48.248;-1.700;2023-04-21T02:32:21;8.70;67.80
46926;DHT22;32667;48.248;-1.700;2023-04-21T02:34:49;8.70;67.80
46926;DHT22;32667;48.248;-1.700;2023-04-21T02:37:15;8.70;67.80
46926;DHT22;32667;48.248;-1.700;2023-04-21T02:39:41;8.70;68.40
46926;DHT22;32667;48.248;-1.700;2023-04-21T02:42:08;8.60;67.80
46926;DHT22;32667;48.248;-1.700;2023-04-21T02:44:36;8.60;67.90
46926;DHT22;32667;48.248;-1.700;2023-04-21T02:47:02;8.50;68.00
46926;DHT22;32667;48.248;-1.700;2023-04-21T02:49:31;8.40;68.00
46926;DHT22;32667;48.248;-1.700;2023-04-21T02:51:57;8.30;68.10
46926;DHT22;32667;48.248;-1.700;2023-04-21T02:54:25;8.30;68.20
46926;DHT22;32667;48.248;-1.700;2023-04-21T02:56:51;8.20;68.30
46926;DHT22;32667;48.248;-1.700;2023-04-21T02:59:16;8.20;68.30
46926;DHT22;32667;48.248;-1.700;2023-04-21T03:01:44;8.20;68.30
46926;DHT22;32667;48.248;-1.700;2023-04-21T03:04:14;8.10;68.30
46926;DHT22;32667;48.248;-1.700;2023-04-21T03:06:40;8.10;68.30
46926;DHT22;32667;48.248;-1.700;2023-04-21T03:09:06;8.10;68.30
46926;DHT22;32667;48.248;-1.700;2023-04-21T03:11:34;8.10;68.30
46926;DHT22;32667;48.248;-1.700;2023-04-21T03:14:00;8.10;68.30
46926;DHT22;32667;48.248;-1.700;2023-04-21T03:16:26;8.00;68.30
46926;DHT22;32667;48.248;-1.700;2023-04-21T03:18:52;8.10;68.30
46926;DHT22;32667;48.248;-1.700;2023-04-21T03:21:18;8.00;68.20
46926;DHT22;32667;48.248;-1.700;2023-04-21T03:23:46;8.00;68.20
46926;DHT22;32667;48.248;-1.700;2023-04-21T03:26:11;8.10;68.10
46926;DHT22;32667;48.248;-1.700;2023-04-21T03:28:37;8.10;68.10
46926;DHT22;32667;48.248;-1.700;2023-04-21T03:31:03;8.10;68.00
46926;DHT22;32667;48.248;-1.700;2023-04-21T03:33:29;8.10;68.00
46926;DHT22;32667;48.248;-1.700;2023-04-21T03:35:54;8.10;68.00
46926;DHT22;32667;48.248;-1.700;2023-04-21T03:38:20;8.10;68.00
46926;DHT22;32667;48.248;-1.700;2023-04-21T03:40:46;8.10;67.80
46926;DHT22;32667;48.248;-1.700;2023-04-21T03:43:11;8.10;67.90
46926;DHT22;32667;48.248;-1.700;2023-04-21T03:45:37;8.10;67.90
46926;DHT22;32667;48.248;-1.700;2023-04-21T03:48:03;8.10;67.80
46926;DHT22;32667;48.248;-1.700;2023-04-21T03:50:31;8.10;67.80
46926;DHT22;32667;48.248;-1.700;2023-04-21T03:52:57;8.10;67.80
46926;DHT22;32667;48.248;-1.700;2023-04-21T03:55:23;8.10;67.80
46926;DHT22;32667;48.248;-1.700;2023-04-21T03:57:48;8.00;67.80
46926;DHT22;32667;48.248;-1.700;2023-04-21T04:00:14;8.00;68.00
46926;DHT22;32667;48.248;-1.700;2023-04-21T04:02:42;8.00;67.90
46926;DHT22;32667;48.248;-1.700;2023-04-21T04:05:08;8.00;67.90
46926;DHT22;32667;48.248;-1.700;2023-04-21T04:07:34;8.00;67.90
46926;DHT22;32667;48.248;-1.700;2023-04-21T04:10:03;8.00;67.90
46926;DHT22;32667;48.248;-1.700;2023-04-21T04:12:29;8.00;67.90
46926;DHT22;32667;48.248;-1.700;2023-04-21T04:14:56;8.00;67.90
46926;DHT22;32667;48.248;-1.700;2023-04-21T04:17:22;8.00;68.00
46926;DHT22;32667;48.248;-1.700;2023-04-21T04:19:48;8.00;68.00
46926;DHT22;32667;48.248;-1.700;2023-04-21T04:22:13;8.00;68.00
46926;DHT22;32667;48.248;-1.700;2023-04-21T04:24:39;7.90;67.90
46926;DHT22;32667;48.248;-1.700;2023-04-21T04:27:05;7.90;67.90
46926;DHT22;32667;48.248;-1.700;2023-04-21T04:29:31;7.90;67.90
46926;DHT22;32667;48.248;-1.700;2023-04-21T04:31:57;7.90;68.00
46926;DHT22;32667;48.248;-1.700;2023-04-21T04:34:23;7.80;68.00
46926;DHT22;32667;48.248;-1.700;2023-04-21T04:36:49;7.80;68.00
46926;DHT22;32667;48.248;-1.700;2023-04-21T04:39:17;7.80;68.10
46926;DHT22;32667;48.248;-1.700;2023-04-21T04:41:42;7.80;68.10
46926;DHT22;32667;48.248;-1.700;2023-04-21T04:44:11;7.80;68.10
46926;DHT22;32667;48.248;-1.700;2023-04-21T04:46:39;7.80;68.10
46926;DHT22;32667;48.248;-1.700;2023-04-21T04:49:05;7.80;68.10
46926;DHT22;32667;48.248;-1.700;2023-04-21T04:51:31;7.80;68.10
46926;DHT22;32667;48.248;-1.700;2023-04-21T04:53:57;7.80;68.10
46926;DHT22;32667;48.248;-1.700;2023-04-21T04:56:22;7.80;68.00
46926;DHT22;32667;48.248;-1.700;2023-04-21T04:58:48;7.80;68.00
46926;DHT22;32667;48.248;-1.700;2023-04-21T05:01:17;7.80;68.10
46926;DHT22;32667;48.248;-1.700;2023-04-21T05:03:44;7.80;68.00
46926;DHT22;32667;48.248;-1.700;2023-04-21T05:06:10;7.70;68.00
46926;DHT22;32667;48.248;-1.700;2023-04-21T05:08:36;7.70;68.00
46926;DHT22;32667;48.248;-1.700;2023-04-21T05:11:04;7.70;68.70
46926;DHT22;32667;48.248;-1.700;2023-04-21T05:13:41;7.70;68.10
46926;DHT22;32667;48.248;-1.700;2023-04-21T05:16:07;7.70;68.10
46926;DHT22;32667;48.248;-1.700;2023-04-21T05:18:34;7.60;68.10
46926;DHT22;32667;48.248;-1.700;2023-04-21T05:21:02;7.60;68.20
46926;DHT22;32667;48.248;-1.700;2023-04-21T05:23:30;7.50;68.30
46926;DHT22;32667;48.248;-1.700;2023-04-21T05:25:56;7.50;68.40
46926;DHT22;32667;48.248;-1.700;2023-04-21T05:28:22;7.40;68.40
46926;DHT22;32667;48.248;-1.700;2023-04-21T05:30:47;7.40;68.50
46926;DHT22;32667;48.248;-1.700;2023-04-21T05:33:13;7.30;68.40
46926;DHT22;32667;48.248;-1.700;2023-04-21T05:35:42;7.30;68.50
46926;DHT22;32667;48.248;-1.700;2023-04-21T05:38:12;7.30;68.50
46926;DHT22;32667;48.248;-1.700;2023-04-21T05:40:37;7.30;68.50
46926;DHT22;32667;48.248;-1.700;2023-04-21T05:43:03;7.30;68.50
46926;DHT22;32667;48.248;-1.700;2023-04-21T05:45:29;7.30;68.50
46926;DHT22;32667;48.248;-1.700;2023-04-21T05:47:57;7.40;68.50
46926;DHT22;32667;48.248;-1.700;2023-04-21T05:50:22;7.40;68.40
46926;DHT22;32667;48.248;-1.700;2023-04-21T05:52:50;7.40;68.30
46926;DHT22;32667;48.248;-1.700;2023-04-21T05:55:16;7.40;68.20
46926;DHT22;32667;48.248;-1.700;2023-04-21T05:57:42;7.40;68.20
46926;DHT22;32667;48.248;-1.700;2023-04-21T06:00:08;7.50;68.20
46926;DHT22;32667;48.248;-1.700;2023-04-21T06:02:36;7.50;68.10
46926;DHT22;32667;48.248;-1.700;2023-04-21T06:05:02;7.50;68.00
46926;DHT22;32667;48.248;-1.700;2023-04-21T06:07:28;7.50;68.00
46926;DHT22;32667;48.248;-1.700;2023-04-21T06:09:53;7.50;68.00
46926;DHT22;32667;48.248;-1.700;2023-04-21T06:12:21;7.60;68.00
46926;DHT22;32667;48.248;-1.700;2023-04-21T06:14:47;7.60;67.90
46926;DHT22;32667;48.248;-1.700;2023-04-21T06:17:15;7.60;67.90
46926;DHT22;32667;48.248;-1.700;2023-04-21T06:19:42;7.70;67.80
46926;DHT22;32667;48.248;-1.700;2023-04-21T06:22:08;7.70;67.70
46926;DHT22;32667;48.248;-1.700;2023-04-21T06:24:33;7.70;67.60
46926;DHT22;32667;48.248;-1.700;2023-04-21T06:26:59;7.70;67.60
46926;DHT22;32667;48.248;-1.700;2023-04-21T06:29:26;7.80;67.70
46926;DHT22;32667;48.248;-1.700;2023-04-21T06:31:52;7.80;67.60
46926;DHT22;32667;48.248;-1.700;2023-04-21T06:34:17;7.80;67.60
46926;DHT22;32667;48.248;-1.700;2023-04-21T06:36:45;7.90;67.50
46926;DHT22;32667;48.248;-1.700;2023-04-21T06:39:11;7.90;67.40
46926;DHT22;32667;48.248;-1.700;2023-04-21T06:41:37;7.90;67.40
46926;DHT22;32667;48.248;-1.700;2023-04-21T06:44:05;8.00;67.40
46926;DHT22;32667;48.248;-1.700;2023-04-21T06:46:31;8.00;67.30
46926;DHT22;32667;48.248;-1.700;2023-04-21T06:48:57;8.10;67.30
46926;DHT22;32667;48.248;-1.700;2023-04-21T06:51:22;8.20;67.20
46926;DHT22;32667;48.248;-1.700;2023-04-21T06:53:48;8.30;67.00
46926;DHT22;32667;48.248;-1.700;2023-04-21T06:56:16;8.40;66.90
46926;DHT22;32667;48.248;-1.700;2023-04-21T06:58:42;8.50;66.70
46926;DHT22;32667;48.248;-1.700;2023-04-21T07:01:07;8.70;66.60
46926;DHT22;32667;48.248;-1.700;2023-04-21T07:03:33;8.90;66.40
46926;DHT22;32667;48.248;-1.700;2023-04-21T07:05:59;9.00;66.20
46926;DHT22;32667;48.248;-1.700;2023-04-21T07:08:25;9.20;66.00
46926;DHT22;32667;48.248;-1.700;2023-04-21T07:10:51;9.40;65.80
46926;DHT22;32667;48.248;-1.700;2023-04-21T07:13:17;9.50;65.60
46926;DHT22;32667;48.248;-1.700;2023-04-21T07:15:43;9.70;65.50
46926;DHT22;32667;48.248;-1.700;2023-04-21T07:18:08;9.90;65.30
46926;DHT22;32667;48.248;-1.700;2023-04-21T07:20:34;10.00;65.20
46926;DHT22;32667;48.248;-1.700;2023-04-21T07:23:00;10.20;65.00
46926;DHT22;32667;48.248;-1.700;2023-04-21T07:25:25;10.40;64.90
46926;DHT22;32667;48.248;-1.700;2023-04-21T07:27:51;10.50;64.70
46926;DHT22;32667;48.248;-1.700;2023-04-21T07:30:17;10.70;64.70
46926;DHT22;32667;48.248;-1.700;2023-04-21T07:32:43;10.80;64.50
46926;DHT22;32667;48.248;-1.700;2023-04-21T07:35:08;11.00;64.40
46926;DHT22;32667;48.248;-1.700;2023-04-21T07:37:34;11.10;64.30
46926;DHT22;32667;48.248;-1.700;2023-04-21T07:40:05;11.20;64.20
46926;DHT22;32667;48.248;-1.700;2023-04-21T07:42:33;11.30;64.20
46926;DHT22;32667;48.248;-1.700;2023-04-21T07:44:59;11.40;64.20
46926;DHT22;32667;48.248;-1.700;2023-04-21T07:47:29;11.60;64.20
46926;DHT22;32667;48.248;-1.700;2023-04-21T07:49:57;11.70;64.00
46926;DHT22;32667;48.248;-1.700;2023-04-21T07:52:23;11.90;64.00
46926;DHT22;32667;48.248;-1.700;2023-04-21T07:54:49;12.00;63.90
46926;DHT22;32667;48.248;-1.700;2023-04-21T07:57:15;12.10;64.00
46926;DHT22;32667;48.248;-1.700;2023-04-21T07:59:41;12.10;63.90
46926;DHT22;32667;48.248;-1.700;2023-04-21T08:02:07;12.30;63.90
46926;DHT22;32667;48.248;-1.700;2023-04-21T08:04:33;12.40;63.80
46926;DHT22;32667;48.248;-1.700;2023-04-21T08:06:59;12.50;63.70
46926;DHT22;32667;48.248;-1.700;2023-04-21T08:09:25;12.60;63.70
46926;DHT22;32667;48.248;-1.700;2023-04-21T08:11:51;12.70;63.70
46926;DHT22;32667;48.248;-1.700;2023-04-21T08:14:17;12.80;63.60
46926;DHT22;32667;48.248;-1.700;2023-04-21T08:16:43;12.90;63.60
46926;DHT22;32667;48.248;-1.700;2023-04-21T08:19:09;13.10;63.50
46926;DHT22;32667;48.248;-1.700;2023-04-21T08:21:35;13.20;63.40
46926;DHT22;32667;48.248;-1.700;2023-04-21T08:24:01;13.30;63.40
46926;DHT22;32667;48.248;-1.700;2023-04-21T08:26:27;13.30;63.40
46926;DHT22;32667;48.248;-1.700;2023-04-21T08:28:56;13.30;63.60
46926;DHT22;32667;48.248;-1.700;2023-04-21T08:31:24;13.20;63.80
46926;DHT22;32667;48.248;-1.700;2023-04-21T08:33:50;13.20;63.90
46926;DHT22;32667;48.248;-1.700;2023-04-21T08:36:16;13.20;64.00
46926;DHT22;32667;48.248;-1.700;2023-04-21T08:38:45;13.20;64.20
46926;DHT22;32667;48.248;-1.700;2023-04-21T08:41:11;13.30;64.20
46926;DHT22;32667;48.248;-1.700;2023-04-21T08:43:37;13.30;64.10
46926;DHT22;32667;48.248;-1.700;2023-04-21T08:46:07;13.30;64.20
46926;DHT22;32667;48.248;-1.700;2023-04-21T08:48:36;13.30;64.30
46926;DHT22;32667;48.248;-1.700;2023-04-21T08:51:02;13.30;64.40
46926;DHT22;32667;48.248;-1.700;2023-04-21T08:53:29;13.30;64.20
46926;DHT22;32667;48.248;-1.700;2023-04-21T08:55:55;13.40;64.20
46926;DHT22;32667;48.248;-1.700;2023-04-21T08:58:22;13.40;64.20
46926;DHT22;32667;48.248;-1.700;2023-04-21T09:00:48;13.40;64.30
46926;DHT22;32667;48.248;-1.700;2023-04-21T09:03:25;13.40;64.30
46926;DHT22;32667;48.248;-1.700;2023-04-21T09:06:02;13.30;64.40
46926;DHT22;32667;48.248;-1.700;2023-04-21T09:08:30;13.30;64.50
46926;DHT22;32667;48.248;-1.700;2023-04-21T09:10:57;13.30;64.50
46926;DHT22;32667;48.248;-1.700;2023-04-21T09:13:34;13.30;64.50
46926;DHT22;32667;48.248;-1.700;2023-04-21T09:16:03;13.30;64.50
46926;DHT22;32667;48.248;-1.700;2023-04-21T09:18:30;13.40;64.50
46926;DHT22;32667;48.248;-1.700;2023-04-21T09:23:47;13.40;64.40
46926;DHT22;32667;48.248;-1.700;2023-04-21T09:26:17;13.40;64.40
46926;DHT22;32667;48.248;-1.700;2023-04-21T09:28:44;13.50;64.40
46926;DHT22;32667;48.248;-1.700;2023-04-21T09:31:22;13.50;64.20
46926;DHT22;32667;48.248;-1.700;2023-04-21T09:33:56;13.50;64.90
46926;DHT22;32667;48.248;-1.700;2023-04-21T09:36:24;13.50;64.40
46926;DHT22;32667;48.248;-1.700;2023-04-21T09:41:19;13.60;64.40
46926;DHT22;32667;48.248;-1.700;2023-04-21T09:43:47;13.60;64.30
46926;DHT22;32667;48.248;-1.700;2023-04-21T09:46:15;13.70;64.30
46926;DHT22;32667;48.248;-1.700;2023-04-21T09:48:45;13.70;64.20
46926;DHT22;32667;48.248;-1.700;2023-04-21T09:51:13;13.70;64.20
46926;DHT22;32667;48.248;-1.700;2023-04-21T09:53:40;13.80;64.20
46926;DHT22;32667;48.248;-1.700;2023-04-21T09:56:13;13.80;64.20
46926;DHT22;32667;48.248;-1.700;2023-04-21T09:58:46;13.80;64.20
46926;DHT22;32667;48.248;-1.700;2023-04-21T10:01:13;13.90;64.20
46926;DHT22;32667;48.248;-1.700;2023-04-21T10:03:40;13.90;64.00
46926;DHT22;32667;48.248;-1.700;2023-04-21T10:06:06;13.80;64.10
46926;DHT22;32667;48.248;-1.700;2023-04-21T10:08:33;13.80;64.40
46926;DHT22;32667;48.248;-1.700;2023-04-21T10:11:05;13.80;64.40
46926;DHT22;32667;48.248;-1.700;2023-04-21T10:13:31;13.80;64.30
46926;DHT22;32667;48.248;-1.700;2023-04-21T10:16:03;13.90;64.30
46926;DHT22;32667;48.248;-1.700;2023-04-21T10:18:29;14.00;64.20
46926;DHT22;32667;48.248;-1.700;2023-04-21T10:21:08;14.00;64.10
46926;DHT22;32667;48.248;-1.700;2023-04-21T10:23:42;14.00;64.10
46926;DHT22;32667;48.248;-1.700;2023-04-21T10:29:00;14.20;64.00
46926;DHT22;32667;48.248;-1.700;2023-04-21T10:39:24;14.30;63.80
46926;DHT22;32667;48.248;-1.700;2023-04-21T10:41:51;14.30;63.80
46926;DHT22;32667;48.248;-1.700;2023-04-21T10:44:20;14.40;63.80
46926;DHT22;32667;48.248;-1.700;2023-04-21T10:46:52;14.50;63.60
46926;DHT22;32667;48.248;-1.700;2023-04-21T10:49:28;14.60;63.60
46926;DHT22;32667;48.248;-1.700;2023-04-21T10:57:17;14.70;63.50
46926;DHT22;32667;48.248;-1.700;2023-04-21T10:59:45;14.80;63.40
46926;DHT22;32667;48.248;-1.700;2023-04-21T11:02:12;14.70;63.50
46926;DHT22;32667;48.248;-1.700;2023-04-21T11:04:39;14.60;63.70
46926;DHT22;32667;48.248;-1.700;2023-04-21T11:07:18;14.40;64.00
46926;DHT22;32667;48.248;-1.700;2023-04-21T11:09:46;14.30;64.20
46926;DHT22;32667;48.248;-1.700;2023-04-21T11:12:16;14.20;64.50
46926;DHT22;32667;48.248;-1.700;2023-04-21T11:14:43;14.10;64.50
46926;DHT22;32667;48.248;-1.700;2023-04-21T11:17:12;14.10;64.70
46926;DHT22;32667;48.248;-1.700;2023-04-21T11:19:38;14.10;64.60
46926;DHT22;32667;48.248;-1.700;2023-04-21T11:22:04;14.30;64.50
46926;DHT22;32667;48.248;-1.700;2023-04-21T11:24:31;14.40;64.30
46926;DHT22;32667;48.248;-1.700;2023-04-21T11:27:02;14.40;64.10
46926;DHT22;32667;48.248;-1.700;2023-04-21T11:29:33;14.50;64.10
46926;DHT22;32667;48.248;-1.700;2023-04-21T11:31:59;14.60;63.90
46926;DHT22;32667;48.248;-1.700;2023-04-21T11:34:26;14.70;63.80
46926;DHT22;32667;48.248;-1.700;2023-04-21T11:36:54;14.90;63.60
46926;DHT22;32667;48.248;-1.700;2023-04-21T11:39:20;15.00;63.30
46926;DHT22;32667;48.248;-1.700;2023-04-21T11:41:50;15.10;63.20
46926;DHT22;32667;48.248;-1.700;2023-04-21T11:44:36;15.20;63.30
46926;DHT22;32667;48.248;-1.700;2023-04-21T11:47:12;15.20;63.20
46926;DHT22;32667;48.248;-1.700;2023-04-21T11:49:44;15.30;63.10
46926;DHT22;32667;48.248;-1.700;2023-04-21T11:52:18;15.40;63.00
46926;DHT22;32667;48.248;-1.700;2023-04-21T11:54:44;15.40;63.00
46926;DHT22;32667;48.248;-1.700;2023-04-21T11:57:12;15.40;63.60
46926;DHT22;32667;48.248;-1.700;2023-04-21T11:59:44;15.40;63.00
46926;DHT22;32667;48.248;-1.700;2023-04-21T12:02:19;15.50;63.10
46926;DHT22;32667;48.248;-1.700;2023-04-21T12:05:05;15.60;63.00
46926;DHT22;32667;48.248;-1.700;2023-04-21T12:07:35;15.80;62.70
46926;DHT22;32667;48.248;-1.700;2023-04-21T12:10:07;15.90;62.50
46926;DHT22;32667;48.248;-1.700;2023-04-21T12:12:37;15.90;62.50
46926;DHT22;32667;48.248;-1.700;2023-04-21T12:15:07;15.80;62.70
46926;DHT22;32667;48.248;-1.700;2023-04-21T12:17:44;15.80;62.90
46926;DHT22;32667;48.248;-1.700;2023-04-21T12:20:11;15.80;63.00
46926;DHT22;32667;48.248;-1.700;2023-04-21T12:22:37;15.70;63.00
46926;DHT22;32667;48.248;-1.700;2023-04-21T12:25:04;15.70;63.20
46926;DHT22;32667;48.248;-1.700;2023-04-21T12:27:30;15.60;63.20
46926;DHT22;32667;48.248;-1.700;2023-04-21T12:29:56;15.60;63.30
46926;DHT22;32667;48.248;-1.700;2023-04-21T12:32:23;15.70;63.40
46926;DHT22;32667;48.248;-1.700;2023-04-21T12:34:49;15.80;63.30
46926;DHT22;32667;48.248;-1.700;2023-04-21T12:37:14;15.90;63.20
46926;DHT22;32667;48.248;-1.700;2023-04-21T12:39:43;16.00;63.00
46926;DHT22;32667;48.248;-1.700;2023-04-21T12:42:09;16.00;62.90
46926;DHT22;32667;48.248;-1.700;2023-04-21T12:44:38;16.20;62.80
46926;DHT22;32667;48.248;-1.700;2023-04-21T12:47:05;16.30;62.60
46926;DHT22;32667;48.248;-1.700;2023-04-21T12:49:31;16.40;62.50
46926;DHT22;32667;48.248;-1.700;2023-04-21T12:51:57;16.40;62.40
46926;DHT22;32667;48.248;-1.700;2023-04-21T12:54:22;16.60;62.50
46926;DHT22;32667;48.248;-1.700;2023-04-21T12:56:50;16.80;62.30
46926;DHT22;32667;48.248;-1.700;2023-04-21T12:59:16;16.90;62.00
46926;DHT22;32667;48.248;-1.700;2023-04-21T13:01:45;17.00;61.90
46926;DHT22;32667;48.248;-1.700;2023-04-21T13:04:13;17.00;61.90
46926;DHT22;32667;48.248;-1.700;2023-04-21T13:06:39;17.00;62.10
46926;DHT22;32667;48.248;-1.700;2023-04-21T13:09:05;17.00;62.10
46926;DHT22;32667;48.248;-1.700;2023-04-21T13:11:31;17.30;62.00
46926;DHT22;32667;48.248;-1.700;2023-04-21T13:13:57;17.40;61.70
46926;DHT22;32667;48.248;-1.700;2023-04-21T13:16:23;17.60;61.60
46926;DHT22;32667;48.248;-1.700;2023-04-21T13:18:48;17.70;61.40
46926;DHT22;32667;48.248;-1.700;2023-04-21T13:21:14;17.80;61.40
46926;DHT22;32667;48.248;-1.700;2023-04-21T13:23:40;17.80;61.40
46926;DHT22;32667;48.248;-1.700;2023-04-21T13:26:07;17.90;61.50
46926;DHT22;32667;48.248;-1.700;2023-04-21T13:28:33;17.90;61.40
46926;DHT22;32667;48.248;-1.700;2023-04-21T13:31:02;17.80;61.60
46926;DHT22;32667;48.248;-1.700;2023-04-21T13:33:28;17.90;61.60
46926;DHT22;32667;48.248;-1.700;2023-04-21T13:35:53;18.00;61.60
46926;DHT22;32667;48.248;-1.700;2023-04-21T13:38:19;18.00;61.60
46926;DHT22;32667;48.248;-1.700;2023-04-21T13:40:47;18.00;61.70
46926;DHT22;32667;48.248;-1.700;2023-04-21T13:43:14;17.80;61.80
46926;DHT22;32667;48.248;-1.700;2023-04-21T13:45:44;17.60;62.30
46926;DHT22;32667;48.248;-1.700;2023-04-21T13:48:12;17.40;62.60
46926;DHT22;32667;48.248;-1.700;2023-04-21T13:50:45;17.30;62.80
46926;DHT22;32667;48.248;-1.700;2023-04-21T13:53:11;17.30;62.90
46926;DHT22;32667;48.248;-1.700;2023-04-21T13:55:43;17.30;62.80
46926;DHT22;32667;48.248;-1.700;2023-04-21T13:58:09;17.40;62.70
46926;DHT22;32667;48.248;-1.700;2023-04-21T14:00:38;17.40;62.70
46926;DHT22;32667;48.248;-1.700;2023-04-21T14:03:08;17.40;62.70
46926;DHT22;32667;48.248;-1.700;2023-04-21T14:05:34;17.50;62.80
46926;DHT22;32667;48.248;-1.700;2023-04-21T14:08:00;17.30;62.60
46926;DHT22;32667;48.248;-1.700;2023-04-21T14:10:26;17.20;63.60
46926;DHT22;32667;48.248;-1.700;2023-04-21T14:12:52;17.20;63.20
46926;DHT22;32667;48.248;-1.700;2023-04-21T14:15:17;17.30;63.00
46926;DHT22;32667;48.248;-1.700;2023-04-21T14:17:43;17.40;62.70
46926;DHT22;32667;48.248;-1.700;2023-04-21T14:20:11;17.50;62.60
46926;DHT22;32667;48.248;-1.700;2023-04-21T14:22:37;17.40;62.60
46926;DHT22;32667;48.248;-1.700;2023-04-21T14:25:05;17.30;62.80
46926;DHT22;32667;48.248;-1.700;2023-04-21T14:27:31;17.30;62.80
46926;DHT22;32667;48.248;-1.700;2023-04-21T14:29:57;17.40;62.80
46926;DHT22;32667;48.248;-1.700;2023-04-21T14:32:24;17.50;62.60
46926;DHT22;32667;48.248;-1.700;2023-04-21T14:34:50;17.80;62.40
46926;DHT22;32667;48.248;-1.700;2023-04-21T14:37:19;17.90;62.00
46926;DHT22;32667;48.248;-1.700;2023-04-21T14:39:45;18.10;61.80
46926;DHT22;32667;48.248;-1.700;2023-04-21T14:42:11;18.10;61.60
46926;DHT22;32667;48.248;-1.700;2023-04-21T14:44:36;18.30;61.60
46926;DHT22;32667;48.248;-1.700;2023-04-21T14:47:05;18.50;61.50
46926;DHT22;32667;48.248;-1.700;2023-04-21T14:49:31;18.60;61.30
46926;DHT22;32667;48.248;-1.700;2023-04-21T14:52:00;18.70;61.10
46926;DHT22;32667;48.248;-1.700;2023-04-21T14:54:25;18.70;61.10
46926;DHT22;32667;48.248;-1.700;2023-04-21T14:56:51;18.70;61.20
46926;DHT22;32667;48.248;-1.700;2023-04-21T14:59:21;18.70;61.60
46926;DHT22;32667;48.248;-1.700;2023-04-21T15:01:47;18.70;61.40
46926;DHT22;32667;48.248;-1.700;2023-04-21T15:04:13;18.70;61.40
46926;DHT22;32667;48.248;-1.700;2023-04-21T15:06:41;18.70;61.40
46926;DHT22;32667;48.248;-1.700;2023-04-21T15:09:07;18.60;61.50
46926;DHT22;32667;48.248;-1.700;2023-04-21T15:11:37;18.60;61.70
46926;DHT22;32667;48.248;-1.700;2023-04-21T15:14:03;18.60;61.70
46926;DHT22;32667;48.248;-1.700;2023-04-21T15:16:36;18.70;61.70
46926;DHT22;32667;48.248;-1.700;2023-04-21T15:19:02;18.70;61.70
46926;DHT22;32667;48.248;-1.700;2023-04-21T15:21:28;18.70;61.70
46926;DHT22;32667;48.248;-1.700;2023-04-21T15:23:54;18.70;61.80
46926;DHT22;32667;48.248;-1.700;2023-04-21T15:26:20;18.70;61.80
46926;DHT22;32667;48.248;-1.700;2023-04-21T15:28:46;18.70;61.70
46926;DHT22;32667;48.248;-1.700;2023-04-21T15:31:11;18.90;61.60
46926;DHT22;32667;48.248;-1.700;2023-04-21T15:33:37;18.90;61.40
46926;DHT22;32667;48.248;-1.700;2023-04-21T15:36:03;19.00;61.30
46926;DHT22;32667;48.248;-1.700;2023-04-21T15:38:29;19.10;61.20
46926;DHT22;32667;48.248;-1.700;2023-04-21T15:40:54;19.00;61.20
46926;DHT22;32667;48.248;-1.700;2023-04-21T15:43:20;18.90;61.60